Time;durP1;ratioP1;P1;durP2;ratioP2;P2;SDS_P1;SDS_P2;PMS_P1;PMS_P2;Temp;Humidity;BMP_temperature;BMP_pressure;BME280_temperature;BME280_humidity;BME280_pressure;Samples;Min_cycle;Max_cycle;Signal;HPM_P1;HPM_P2
2024/03/12 00:01:40;;;;;;;50.30;30.33;;;9.80;99.90;;;;;;5054525;28;20533;-57
2024/03/12 00:04:07;;;;;;;50.87;30.30;;;9.90;99.90;;;;;;5054401;28;20493;-57
2024/03/12 00:06:36;;;;;;;51.67;29.80;;;9.90;99.90;;;;;;5054389;28;20472;-57
2024/03/12 00:09:06;;;;;;;52.10;30.93;;;9.90;99.90;;;;;;5054450;28;20449;-57
2024/03/12 00:11:33;;;;;;;49.17;29.60;;;9.90;99.90;;;;;;5054362;28;20458;-57
2024/03/12 00:14:00;;;;;;;53.43;33.20;;;9.90;99.90;;;;;;5054347;28;20445;-57
2024/03/12 00:16:28;;;;;;;49.60;30.30;;;10.00;99.90;;;;;;5054060;28;20462;-57
2024/03/12 00:18:55;;;;;;;53.17;29.83;;;9.90;99.90;;;;;;5054133;28;20533;-57
2024/03/12 00:21:22;;;;;;;55.87;33.00;;;10.00;99.90;;;;;;5054247;28;20529;-57
2024/03/12 00:23:50;;;;;;;57.93;35.30;;;9.90;99.90;;;;;;5054220;28;20447;-57
2024/03/12 00:26:17;;;;;;;54.67;36.90;;;9.90;99.90;;;;;;5054200;28;20470;-57
2024/03/12 00:28:47;;;;;;;53.00;35.20;;;9.90;99.90;;;;;;5054046;28;20460;-57
2024/03/12 00:31:14;;;;;;;55.17;35.17;;;9.80;99.90;;;;;;5053737;28;20949;-57
2024/03/12 00:33:42;;;;;;;55.93;35.37;;;9.70;99.90;;;;;;5054062;28;20450;-56
2024/03/12 00:36:12;;;;;;;56.70;36.70;;;9.70;99.90;;;;;;5053095;28;20580;-57
2024/03/12 00:38:39;;;;;;;68.10;38.17;;;9.60;99.90;;;;;;5053943;28;20477;-57
2024/03/12 00:41:07;;;;;;;59.33;37.90;;;9.60;99.90;;;;;;5054019;28;20820;-57
2024/03/12 00:43:35;;;;;;;68.40;38.23;;;9.60;99.90;;;;;;5053598;28;21041;-56
2024/03/12 00:46:04;;;;;;;64.93;38.60;;;9.60;99.90;;;;;;5053264;28;20999;-57
2024/03/12 00:48:31;;;;;;;61.43;37.87;;;9.70;99.90;;;;;;5053700;28;20485;-56
2024/03/12 00:50:58;;;;;;;65.13;38.83;;;9.60;99.90;;;;;;5053758;28;20456;-56
2024/03/12 00:53:25;;;;;;;74.77;39.00;;;9.60;99.90;;;;;;5052949;28;20441;-56
2024/03/12 00:55:53;;;;;;;65.37;38.93;;;9.60;99.90;;;;;;5052507;28;20943;-56
2024/03/12 00:58:21;;;;;;;62.77;39.93;;;9.60;99.90;;;;;;5053221;28;20451;-56
2024/03/12 01:00:48;;;;;;;64.67;38.70;;;9.60;99.90;;;;;;5053576;28;20448;-56
2024/03/12 01:03:17;;;;;;;59.87;36.57;;;9.50;99.90;;;;;;5053399;28;20499;-56
2024/03/12 01:05:43;;;;;;;63.43;37.83;;;9.50;99.90;;;;;;5053253;28;20511;-57
2024/03/12 01:08:11;;;;;;;68.80;37.97;;;9.50;99.90;;;;;;5053490;28;20452;-57
2024/03/12 01:10:39;;;;;;;53.37;35.13;;;9.50;99.90;;;;;;5053237;28;20488;-57
2024/03/12 01:13:08;;;;;;;58.47;34.90;;;9.50;99.90;;;;;;5053392;28;20445;-57
2024/03/12 01:15:36;;;;;;;59.50;34.73;;;9.40;99.90;;;;;;5053447;28;20461;-57
2024/03/12 01:18:04;;;;;;;56.13;34.07;;;9.40;99.90;;;;;;5053450;28;20456;-56
2024/03/12 01:20:34;;;;;;;51.87;32.87;;;9.40;99.90;;;;;;5053374;28;20472;-56
2024/03/12 01:23:01;;;;;;;50.40;35.07;;;9.50;99.90;;;;;;5053681;28;20871;-56
2024/03/12 01:25:29;;;;;;;53.33;33.17;;;9.50;99.90;;;;;;5053218;28;20482;-57
2024/03/12 01:27:56;;;;;;;52.33;34.50;;;9.40;99.90;;;;;;5053355;28;20530;-57
2024/03/12 01:30:27;;;;;;;51.40;33.33;;;9.40;99.90;;;;;;5053174;28;20515;-57
2024/03/12 01:32:57;;;;;;;54.47;32.23;;;9.40;99.90;;;;;;5053164;28;20524;-57
2024/03/12 01:35:25;;;;;;;52.73;32.13;;;9.40;99.90;;;;;;5053003;28;20479;-57
2024/03/12 01:37:52;;;;;;;48.30;31.37;;;9.40;99.90;;;;;;5053103;28;20453;-57
2024/03/12 01:40:22;;;;;;;50.10;31.70;;;9.40;99.90;;;;;;5053020;28;20445;-57
2024/03/12 01:42:50;;;;;;;51.50;30.93;;;9.30;99.90;;;;;;5052904;28;20488;-57
2024/03/12 01:45:17;;;;;;;50.70;30.97;;;9.30;99.90;;;;;;5052828;28;20491;-57
2024/03/12 01:47:45;;;;;;;49.90;29.60;;;9.30;99.90;;;;;;5055186;28;20446;-57
2024/03/12 01:50:13;;;;;;;50.07;30.30;;;9.30;99.90;;;;;;5056919;28;20452;-57
2024/03/12 01:52:43;;;;;;;50.33;30.67;;;9.30;99.90;;;;;;5056837;28;20451;-57
2024/03/12 01:55:10;;;;;;;50.13;30.43;;;9.30;99.90;;;;;;5056968;28;20873;-57
2024/03/12 01:57:41;;;;;;;47.90;30.27;;;9.30;99.90;;;;;;5056475;28;20956;-57
2024/03/12 02:00:13;;;;;;;52.20;32.40;;;9.30;99.90;;;;;;5056867;28;20448;-57
2024/03/12 02:02:40;;;;;;;47.07;31.47;;;9.30;99.90;;;;;;5057504;28;20461;-57
2024/03/12 02:05:07;;;;;;;50.03;31.23;;;9.30;99.90;;;;;;5056557;28;20856;-57
2024/03/12 02:07:35;;;;;;;46.47;31.37;;;9.30;99.90;;;;;;5056569;28;20465;-56
2024/03/12 02:10:03;;;;;;;49.50;32.33;;;9.40;99.90;;;;;;5056803;28;20449;-56
2024/03/12 02:12:30;;;;;;;51.10;31.87;;;9.30;99.90;;;;;;5057369;28;20449;-56
2024/03/12 02:14:57;;;;;;;52.80;30.97;;;9.30;99.90;;;;;;5056244;28;20442;-56
2024/03/12 02:17:24;;;;;;;54.23;31.97;;;9.30;99.90;;;;;;5056388;28;20469;-57
2024/03/12 02:19:51;;;;;;;51.33;32.77;;;9.20;99.90;;;;;;5056493;28;20528;-56
2024/03/12 02:22:18;;;;;;;45.53;29.90;;;9.20;99.90;;;;;;5056556;28;20448;-56
2024/03/12 02:24:47;;;;;;;46.20;29.80;;;9.30;99.90;;;;;;5056477;28;20445;-56
2024/03/12 02:27:13;;;;;;;45.77;28.53;;;9.30;99.90;;;;;;5056272;28;20543;-56
2024/03/12 02:29:40;;;;;;;38.40;27.17;;;9.30;99.90;;;;;;5056326;28;20449;-56
2024/03/12 02:32:07;;;;;;;40.63;26.47;;;9.30;99.90;;;;;;5056338;28;20441;-56
2024/03/12 02:34:34;;;;;;;41.03;27.67;;;9.30;99.90;;;;;;5056071;28;21022;-56
2024/03/12 02:37:01;;;;;;;46.00;27.80;;;9.30;99.90;;;;;;5056051;28;20465;-57
2024/03/12 02:39:30;;;;;;;48.30;28.60;;;9.30;99.90;;;;;;5055731;28;20448;-57
2024/03/12 02:41:58;;;;;;;41.00;27.60;;;9.40;99.90;;;;;;5056007;28;20503;-57
2024/03/12 02:44:25;;;;;;;40.33;24.60;;;9.40;99.90;;;;;;5055580;28;20947;-56
2024/03/12 02:46:54;;;;;;;33.90;22.93;;;9.40;99.90;;;;;;5055718;28;20491;-57
2024/03/12 02:49:23;;;;;;;32.57;23.80;;;9.40;99.90;;;;;;5055501;28;20449;-57
2024/03/12 02:51:49;;;;;;;36.17;23.30;;;9.40;99.90;;;;;;5055883;28;20446;-57
2024/03/12 02:54:16;;;;;;;35.80;24.23;;;9.40;99.90;;;;;;5055794;28;20437;-57
2024/03/12 02:56:44;;;;;;;32.87;22.27;;;9.40;99.90;;;;;;5055470;28;20470;-57
2024/03/12 02:59:12;;;;;;;31.17;22.20;;;9.40;99.90;;;;;;5054786;28;20445;-57
2024/03/12 03:01:39;;;;;;;31.77;21.40;;;9.30;99.90;;;;;;5055517;28;20453;-57
2024/03/12 03:04:08;;;;;;;25.03;17.97;;;9.40;99.90;;;;;;5055904;28;20472;-57
2024/03/12 03:06:35;;;;;;;25.83;16.53;;;9.30;99.90;;;;;;5055325;28;20580;-57
2024/03/12 03:09:02;;;;;;;19.80;15.13;;;9.30;99.90;;;;;;5055427;28;20795;-57
2024/03/12 03:11:32;;;;;;;22.70;15.93;;;9.20;99.90;;;;;;5055464;28;20449;-56
2024/03/12 03:13:59;;;;;;;20.90;13.67;;;9.20;99.90;;;;;;5055461;28;20818;-56
2024/03/12 03:16:27;;;;;;;21.53;14.83;;;9.20;99.90;;;;;;5055082;28;20527;-56
2024/03/12 03:18:54;;;;;;;19.03;13.30;;;9.20;99.90;;;;;;5055493;28;20442;-56
2024/03/12 03:21:21;;;;;;;16.20;11.63;;;9.20;99.90;;;;;;5055381;28;20445;-56
2024/03/12 03:23:48;;;;;;;16.07;12.27;;;9.10;99.90;;;;;;5055309;28;20446;-56
2024/03/12 03:26:15;;;;;;;14.10;11.00;;;9.10;99.90;;;;;;5055083;28;20587;-56
2024/03/12 03:28:42;;;;;;;14.33;11.63;;;9.10;99.90;;;;;;5055203;28;20813;-56
2024/03/12 03:31:10;;;;;;;15.70;11.73;;;9.10;99.90;;;;;;5054851;28;20449;-56
2024/03/12 03:33:39;;;;;;;16.50;12.17;;;9.00;99.90;;;;;;5055001;28;20445;-56
2024/03/12 03:36:06;;;;;;;15.47;11.70;;;9.00;99.90;;;;;;5054589;28;20843;-56
2024/03/12 03:38:39;;;;;;;18.83;13.33;;;8.90;99.90;;;;;;5054688;28;20441;-56
2024/03/12 03:41:07;;;;;;;16.73;13.30;;;9.00;99.90;;;;;;5055787;28;20487;-56
2024/03/12 03:43:33;;;;;;;16.57;12.50;;;8.90;99.90;;;;;;5054895;28;20445;-56
2024/03/12 03:46:00;;;;;;;20.97;15.10;;;8.90;99.90;;;;;;5054766;28;20580;-57
2024/03/12 03:48:27;;;;;;;24.53;15.63;;;8.80;99.90;;;;;;5054696;28;20449;-57
2024/03/12 03:50:56;;;;;;;16.57;13.90;;;8.90;99.90;;;;;;5054662;28;20442;-57
2024/03/12 03:53:23;;;;;;;21.57;14.97;;;8.90;99.90;;;;;;5054357;28;20528;-57
2024/03/12 03:55:50;;;;;;;22.33;15.17;;;8.90;99.90;;;;;;5054405;28;20473;-57
2024/03/12 03:58:18;;;;;;;24.80;16.57;;;8.90;99.90;;;;;;5054598;28;20472;-56
2024/03/12 04:00:44;;;;;;;23.53;16.37;;;8.90;99.90;;;;;;5054443;28;20456;-57
2024/03/12 04:03:11;;;;;;;24.80;16.20;;;8.90;99.90;;;;;;5054525;28;20520;-57
2024/03/12 04:05:38;;;;;;;21.67;15.93;;;9.00;99.90;;;;;;5054406;28;20486;-57
2024/03/12 04:08:07;;;;;;;23.47;17.10;;;9.00;99.90;;;;;;5054483;28;20453;-57
2024/03/12 04:10:34;;;;;;;28.17;19.20;;;9.00;99.90;;;;;;5054188;28;20457;-57
2024/03/12 04:13:01;;;;;;;30.13;20.23;;;9.00;99.90;;;;;;5054278;28;20445;-57
2024/03/12 04:15:28;;;;;;;26.90;17.60;;;9.00;99.90;;;;;;5053938;28;21015;-57
2024/03/12 04:17:55;;;;;;;25.00;18.90;;;9.00;99.90;;;;;;5053952;28;20940;-57
2024/03/12 04:20:23;;;;;;;24.93;18.37;;;8.90;99.90;;;;;;5054124;28;20471;-57
2024/03/12 04:22:50;;;;;;;24.57;17.47;;;8.90;99.90;;;;;;5054141;28;20438;-57
2024/03/12 04:25:18;;;;;;;25.50;17.90;;;8.90;99.90;;;;;;5053945;28;20533;-57
2024/03/12 04:27:45;;;;;;;33.43;21.50;;;8.90;99.90;;;;;;5053595;28;20456;-56
2024/03/12 04:30:13;;;;;;;26.87;20.87;;;8.90;99.90;;;;;;5053967;28;20533;-57
2024/03/12 04:32:41;;;;;;;27.93;19.27;;;8.80;99.90;;;;;;5054049;28;20438;-57
2024/03/12 04:35:09;;;;;;;36.77;21.27;;;8.80;99.90;;;;;;5053978;28;20438;-57
2024/03/12 04:37:36;;;;;;;31.30;21.13;;;8.80;99.90;;;;;;5053769;28;20470;-56
2024/03/12 04:40:06;;;;;;;28.40;19.87;;;8.80;99.90;;;;;;5053808;28;20453;-56
2024/03/12 04:42:35;;;;;;;33.07;22.00;;;8.80;99.90;;;;;;5053597;28;20488;-57
2024/03/12 04:45:04;;;;;;;32.40;19.70;;;8.80;99.90;;;;;;5053712;28;20492;-57
2024/03/12 04:47:32;;;;;;;27.60;18.83;;;8.80;99.90;;;;;;5053495;28;20489;-56
2024/03/12 04:49:59;;;;;;;28.70;20.57;;;8.80;99.90;;;;;;5053311;28;20449;-57
2024/03/12 04:52:25;;;;;;;30.23;20.13;;;8.80;99.90;;;;;;5053547;28;20473;-56
2024/03/12 04:54:52;;;;;;;28.37;20.47;;;8.80;99.90;;;;;;5053510;28;20455;-57
2024/03/12 04:57:20;;;;;;;29.23;20.90;;;8.80;99.90;;;;;;5053109;28;20465;-57
2024/03/12 04:59:48;;;;;;;30.23;18.53;;;8.80;99.90;;;;;;5053354;28;20476;-57
2024/03/12 05:02:15;;;;;;;25.10;18.83;;;8.80;99.90;;;;;;5054299;28;20785;-57
2024/03/12 05:04:42;;;;;;;30.90;19.50;;;8.80;99.90;;;;;;5053495;28;20449;-57
2024/03/12 05:07:09;;;;;;;30.57;20.67;;;8.80;99.90;;;;;;5052966;28;20483;-57
2024/03/12 05:09:36;;;;;;;27.97;20.90;;;8.80;99.90;;;;;;5053287;28;20445;-56
2024/03/12 05:12:02;;;;;;;31.30;21.00;;;8.80;99.90;;;;;;5053426;28;20437;-57
2024/03/12 05:14:29;;;;;;;28.70;20.50;;;8.80;99.90;;;;;;5053242;28;20497;-56
2024/03/12 05:16:59;;;;;;;29.90;21.03;;;8.80;99.90;;;;;;5053327;28;20461;-57
2024/03/12 05:19:26;;;;;;;30.63;22.30;;;8.80;99.90;;;;;;5053450;28;20532;-57
2024/03/12 05:21:53;;;;;;;29.60;20.63;;;8.80;99.90;;;;;;5052873;28;20496;-57
2024/03/12 05:24:20;;;;;;;29.17;19.30;;;8.80;99.90;;;;;;5053458;28;20446;-56
2024/03/12 05:26:49;;;;;;;30.27;21.33;;;8.80;99.90;;;;;;5053373;28;20493;-56
2024/03/12 05:29:17;;;;;;;28.77;20.87;;;8.80;99.90;;;;;;5053268;28;20449;-56
2024/03/12 05:31:44;;;;;;;32.10;21.53;;;8.80;99.90;;;;;;5053084;28;20457;-56
2024/03/12 05:34:16;;;;;;;31.90;20.87;;;8.80;99.90;;;;;;5053171;28;20445;-56
2024/03/12 05:36:48;;;;;;;31.37;19.50;;;8.80;99.90;;;;;;5053068;28;20517;-56
2024/03/12 05:39:20;;;;;;;30.43;20.97;;;8.80;99.90;;;;;;5053055;28;20430;-56
2024/03/12 05:48:07;;;;;;;27.20;20.33;;;8.80;99.90;;;;;;5053042;28;20513;-56
2024/03/12 05:50:11;;;;;;;28.90;19.50;;;8.60;99.90;;;;;;5052604;28;20567;-56
2024/03/12 05:52:38;;;;;;;31.50;21.30;;;8.60;99.90;;;;;;5053072;28;20446;-56
2024/03/12 05:55:06;;;;;;;29.80;20.43;;;8.60;99.90;;;;;;5052656;28;20540;-56
2024/03/12 05:57:33;;;;;;;34.30;22.97;;;8.60;99.90;;;;;;5052482;28;20475;-57
2024/03/12 06:00:00;;;;;;;37.90;22.43;;;8.60;99.90;;;;;;5052899;28;20449;-56
2024/03/12 06:02:27;;;;;;;31.97;20.70;;;8.60;99.90;;;;;;5052537;28;20453;-56
2024/03/12 06:04:55;;;;;;;33.50;22.07;;;8.60;99.90;;;;;;5052885;28;20445;-56
2024/03/12 06:07:23;;;;;;;30.23;20.50;;;8.70;99.90;;;;;;5052376;28;21017;-57
2024/03/12 06:09:51;;;;;;;29.70;20.83;;;8.70;99.90;;;;;;5052866;28;20446;-56
2024/03/12 06:12:18;;;;;;;34.73;20.00;;;8.70;99.90;;;;;;5052900;28;20449;-56
2024/03/12 06:14:46;;;;;;;37.07;22.23;;;8.80;99.90;;;;;;5052714;28;20441;-58
2024/03/12 06:17:13;;;;;;;33.60;20.70;;;8.80;99.90;;;;;;5052945;28;20473;-56
2024/03/12 06:19:40;;;;;;;34.17;21.53;;;8.90;99.90;;;;;;5052851;28;20445;-56
2024/03/12 06:22:08;;;;;;;33.40;21.20;;;8.80;99.90;;;;;;5052499;28;20449;-56
2024/03/12 06:24:36;;;;;;;37.30;21.03;;;8.80;99.90;;;;;;5052695;28;20446;-57
2024/03/12 06:27:03;;;;;;;35.73;21.27;;;8.90;99.90;;;;;;5052414;28;20489;-57
2024/03/12 06:29:30;;;;;;;30.57;20.60;;;8.90;99.90;;;;;;5052388;28;20451;-56
2024/03/12 06:31:57;;;;;;;32.60;20.20;;;8.80;99.90;;;;;;5052731;28;20467;-57
2024/03/12 06:34:26;;;;;;;33.20;21.63;;;8.80;99.90;;;;;;5054073;28;20452;-57
2024/03/12 06:36:57;;;;;;;28.07;19.37;;;8.80;99.90;;;;;;5056066;28;20519;-57
2024/03/12 06:39:30;;;;;;;34.07;22.50;;;8.80;99.90;;;;;;5056200;28;20532;-57
2024/03/12 06:41:59;;;;;;;34.97;20.93;;;8.80;99.90;;;;;;5056148;28;20434;-57
2024/03/12 06:44:26;;;;;;;32.93;21.30;;;8.80;99.90;;;;;;5055791;28;20837;-57
2024/03/12 06:46:53;;;;;;;35.87;19.60;;;8.70;99.90;;;;;;5055828;28;20849;-57
2024/03/12 06:49:20;;;;;;;30.07;20.53;;;8.80;99.90;;;;;;5055906;28;20503;-57
2024/03/12 06:51:47;;;;;;;34.77;22.63;;;8.80;99.90;;;;;;5055821;28;20452;-57
2024/03/12 06:54:15;;;;;;;35.33;20.87;;;8.80;99.90;;;;;;5055800;28;20453;-57
2024/03/12 06:56:42;;;;;;;37.57;22.60;;;8.80;99.90;;;;;;5055384;28;20495;-57
2024/03/12 06:59:11;;;;;;;37.80;22.20;;;8.80;99.90;;;;;;5055652;28;20448;-57
2024/03/12 07:01:40;;;;;;;38.20;23.07;;;8.80;99.90;;;;;;5056494;28;20445;-57
2024/03/12 07:04:09;;;;;;;35.77;23.17;;;8.80;99.90;;;;;;5055591;28;20489;-57
2024/03/12 07:06:36;;;;;;;39.30;22.90;;;8.70;99.90;;;;;;5055535;28;20485;-57
2024/03/12 07:09:08;;;;;;;34.03;20.53;;;8.80;99.90;;;;;;5055157;28;20533;-57
2024/03/12 07:11:39;;;;;;;33.53;21.10;;;8.80;99.90;;;;;;5055539;28;20796;-57
2024/03/12 07:14:12;;;;;;;32.60;18.37;;;8.80;99.90;;;;;;5056061;28;20433;-57
2024/03/12 07:16:42;;;;;;;34.90;18.83;;;8.80;99.90;;;;;;5055377;28;20488;-56
2024/03/12 07:19:10;;;;;;;32.00;18.87;;;8.80;99.90;;;;;;5054980;28;20449;-57
2024/03/12 07:21:37;;;;;;;34.87;21.47;;;8.80;99.90;;;;;;5056123;28;20446;-56
2024/03/12 07:24:06;;;;;;;31.40;20.00;;;8.80;99.90;;;;;;5054927;28;20940;-56
2024/03/12 07:26:33;;;;;;;31.23;20.20;;;8.80;99.90;;;;;;5055057;28;20489;-56
2024/03/12 07:29:02;;;;;;;32.17;18.40;;;8.80;99.90;;;;;;5055031;28;20446;-56
2024/03/12 07:31:28;;;;;;;35.27;22.40;;;8.80;99.90;;;;;;5054866;28;20479;-57
2024/03/12 07:33:57;;;;;;;31.07;20.03;;;8.80;99.90;;;;;;5055099;28;20445;-56
2024/03/12 07:36:24;;;;;;;34.40;18.80;;;8.90;99.90;;;;;;5054781;28;20469;-56
2024/03/12 07:38:52;;;;;;;37.67;21.13;;;8.90;99.90;;;;;;5055075;28;20438;-56
2024/03/12 07:41:19;;;;;;;31.63;18.77;;;8.90;99.90;;;;;;5055043;28;20453;-56
2024/03/12 07:43:46;;;;;;;33.60;21.37;;;8.90;99.90;;;;;;5054952;28;20445;-56
2024/03/12 07:46:14;;;;;;;31.13;21.00;;;8.80;99.90;;;;;;5054302;28;20467;-56
2024/03/12 07:48:41;;;;;;;30.80;20.40;;;8.80;99.90;;;;;;5054826;28;20449;-56
2024/03/12 07:51:10;;;;;;;33.70;20.07;;;8.90;99.90;;;;;;5054745;28;20454;-56
2024/03/12 07:53:39;;;;;;;34.67;19.10;;;8.90;99.90;;;;;;5054835;28;20445;-56
2024/03/12 07:56:06;;;;;;;30.70;20.03;;;8.90;99.90;;;;;;5054233;28;20987;-56
2024/03/12 07:58:35;;;;;;;31.93;20.67;;;9.00;99.90;;;;;;5054898;28;20431;-56
2024/03/12 08:01:03;;;;;;;30.83;20.43;;;9.00;99.90;;;;;;5054729;28;20446;-56
2024/03/12 08:03:29;;;;;;;32.03;20.20;;;9.00;99.90;;;;;;5054464;28;20460;-56
2024/03/12 08:05:56;;;;;;;30.17;20.40;;;9.00;99.90;;;;;;5054448;28;20469;-56
2024/03/12 08:08:24;;;;;;;33.43;19.20;;;9.00;99.90;;;;;;5053930;28;20851;-56
2024/03/12 08:10:51;;;;;;;30.00;19.93;;;9.10;99.90;;;;;;5054266;28;20446;-56
2024/03/12 08:13:18;;;;;;;30.10;21.17;;;9.10;99.90;;;;;;5053952;28;20446;-56
2024/03/12 08:15:45;;;;;;;35.03;20.20;;;9.10;99.90;;;;;;5053845;28;20465;-56
2024/03/12 08:18:13;;;;;;;35.57;21.87;;;9.10;99.90;;;;;;5053924;28;21002;-56
2024/03/12 08:20:40;;;;;;;37.20;22.20;;;9.20;99.90;;;;;;5054108;28;20451;-56
2024/03/12 08:23:07;;;;;;;33.37;21.37;;;9.20;99.90;;;;;;5053876;28;20529;-56
2024/03/12 08:25:35;;;;;;;32.87;22.67;;;9.20;99.90;;;;;;5053978;28;20495;-56
2024/03/12 08:28:02;;;;;;;38.27;23.40;;;9.30;99.90;;;;;;5053599;28;20487;-56
2024/03/12 08:30:28;;;;;;;35.40;24.43;;;9.30;99.90;;;;;;5053960;28;20449;-56
2024/03/12 08:32:56;;;;;;;39.00;22.50;;;9.40;99.90;;;;;;5053940;28;20441;-56
2024/03/12 08:35:23;;;;;;;36.70;24.03;;;9.40;99.90;;;;;;5053841;28;20571;-56
2024/03/12 08:37:50;;;;;;;35.60;22.30;;;9.40;99.90;;;;;;5053795;28;20449;-56
2024/03/12 08:40:16;;;;;;;34.70;23.23;;;9.50;99.90;;;;;;5053798;28;20437;-56
2024/03/12 08:42:45;;;;;;;33.13;21.97;;;9.50;99.90;;;;;;5053544;28;20452;-56
2024/03/12 08:45:14;;;;;;;33.77;22.23;;;9.50;99.90;;;;;;5053696;28;20492;-56
2024/03/12 08:47:41;;;;;;;33.87;21.53;;;9.40;99.90;;;;;;5053529;28;20492;-56
2024/03/12 08:50:09;;;;;;;34.93;20.50;;;9.40;99.90;;;;;;5053624;28;20450;-56
2024/03/12 08:52:36;;;;;;;35.60;22.00;;;9.40;99.90;;;;;;5053791;28;20491;-56
2024/03/12 08:55:03;;;;;;;31.87;20.00;;;9.40;99.90;;;;;;5053722;28;20441;-56
2024/03/12 08:57:31;;;;;;;32.20;20.83;;;9.30;99.90;;;;;;5052531;28;20465;-56
2024/03/12 09:00:00;;;;;;;31.07;20.80;;;9.20;99.90;;;;;;5053527;28;20453;-57
2024/03/12 09:02:27;;;;;;;31.47;20.37;;;9.20;99.90;;;;;;5053176;28;20462;-57
2024/03/12 09:04:54;;;;;;;29.67;19.23;;;9.20;99.90;;;;;;5053535;28;20948;-56
2024/03/12 09:07:21;;;;;;;30.60;20.70;;;9.20;99.90;;;;;;5053487;28;20485;-56
2024/03/12 09:09:48;;;;;;;35.50;20.40;;;9.10;99.90;;;;;;5053331;28;20453;-56
2024/03/12 09:12:15;;;;;;;31.40;21.27;;;9.10;99.90;;;;;;5053241;28;20447;-56
2024/03/12 09:14:42;;;;;;;31.50;19.73;;;9.10;99.90;;;;;;5053150;28;20529;-57
2024/03/12 09:17:10;;;;;;;32.77;21.53;;;9.10;99.90;;;;;;5053364;28;20488;-57
2024/03/12 09:19:37;;;;;;;31.67;21.23;;;9.10;99.90;;;;;;5053252;28;20536;-57
2024/03/12 09:22:04;;;;;;;32.80;21.67;;;9.10;99.90;;;;;;5053285;28;20446;-56
2024/03/12 09:24:31;;;;;;;29.53;20.90;;;9.20;99.90;;;;;;5053189;28;20445;-57
2024/03/12 09:26:59;;;;;;;33.13;20.27;;;9.20;99.90;;;;;;5053033;28;20461;-56
2024/03/12 09:29:25;;;;;;;34.53;20.80;;;9.20;99.90;;;;;;5052861;28;20969;-56
2024/03/12 09:31:52;;;;;;;34.53;21.90;;;9.30;99.90;;;;;;5052755;28;20445;-57
2024/03/12 09:34:21;;;;;;;29.43;19.20;;;9.30;99.90;;;;;;5053286;28;20451;-57
2024/03/12 09:36:47;;;;;;;33.60;19.23;;;9.40;99.90;;;;;;5053283;28;20568;-57
2024/03/12 09:39:17;;;;;;;34.97;21.03;;;9.50;99.90;;;;;;5053256;28;20441;-56
2024/03/12 09:41:48;;;;;;;33.73;20.57;;;9.50;99.90;;;;;;5052880;28;20951;-56
2024/03/12 09:44:16;;;;;;;33.97;21.57;;;9.60;99.90;;;;;;5053601;28;20425;-56
2024/03/12 09:46:45;;;;;;;32.83;22.07;;;9.70;99.90;;;;;;5052943;28;20902;-56
2024/03/12 09:49:13;;;;;;;35.53;23.57;;;9.70;99.90;;;;;;5052689;28;21036;-56
2024/03/12 09:51:41;;;;;;;33.60;21.43;;;9.70;99.90;;;;;;5052977;28;20471;-56
2024/03/12 09:54:09;;;;;;;36.03;23.27;;;9.70;99.90;;;;;;5052962;28;20433;-55
2024/03/12 09:56:36;;;;;;;36.60;23.07;;;9.80;99.90;;;;;;5052380;28;21018;-56
2024/03/12 09:59:04;;;;;;;29.77;20.07;;;9.80;99.90;;;;;;5052938;28;20444;-56
2024/03/12 10:01:31;;;;;;;35.20;21.83;;;9.80;99.90;;;;;;5052882;28;20537;-56
2024/03/12 10:03:58;;;;;;;35.93;23.27;;;9.90;99.90;;;;;;5052823;28;20813;-56
2024/03/12 10:06:25;;;;;;;33.10;22.17;;;9.90;99.90;;;;;;5052459;28;21018;-56
2024/03/12 10:08:58;;;;;;;36.27;21.90;;;10.00;99.90;;;;;;5055052;28;20485;-56
2024/03/12 10:11:25;;;;;;;41.90;22.97;;;10.00;99.90;;;;;;5056594;28;20434;-56
2024/03/12 10:13:56;;;;;;;29.83;20.37;;;10.00;99.90;;;;;;5056552;28;20444;-56
2024/03/12 10:16:25;;;;;;;34.97;21.60;;;10.10;99.90;;;;;;5056184;28;20865;-56
2024/03/12 10:19:08;;;;;;;30.57;22.00;;;10.20;99.90;;;;;;5056473;28;20438;-56
2024/03/12 10:21:36;;;;;;;31.20;20.40;;;10.30;99.90;;;;;;5057041;28;20461;-55
2024/03/12 10:24:13;;;;;;;33.63;21.87;;;10.40;99.90;;;;;;5056059;28;20532;-56
2024/03/12 10:26:40;;;;;;;32.33;21.47;;;10.60;99.90;;;;;;5055957;28;20491;-56
2024/03/12 10:29:09;;;;;;;35.33;21.70;;;10.80;99.90;;;;;;5056155;28;20572;-56
2024/03/12 10:31:39;;;;;;;29.97;21.60;;;10.80;99.90;;;;;;5056043;28;20495;-56
2024/03/12 10:34:09;;;;;;;32.07;22.00;;;10.90;99.90;;;;;;5056300;28;20433;-56
2024/03/12 10:36:37;;;;;;;32.97;22.53;;;10.80;99.90;;;;;;5056130;28;20834;-56
2024/03/12 10:39:07;;;;;;;30.13;20.73;;;10.70;99.90;;;;;;5056139;28;20441;-56
2024/03/12 10:41:35;;;;;;;30.30;21.87;;;10.70;99.90;;;;;;5056364;28;20442;-56
2024/03/12 10:44:10;;;;;;;37.13;23.70;;;10.70;99.90;;;;;;5055700;28;20449;-56
2024/03/12 10:46:39;;;;;;;42.07;24.70;;;10.60;99.90;;;;;;5055980;28;20464;-56
2024/03/12 10:49:10;;;;;;;35.17;23.60;;;10.50;99.90;;;;;;5055753;28;20890;-56
2024/03/12 10:51:40;;;;;;;35.93;24.63;;;10.50;99.90;;;;;;5056341;28;20430;-56
2024/03/12 10:54:11;;;;;;;35.77;23.83;;;10.50;99.90;;;;;;5055910;28;20429;-56
2024/03/12 10:56:41;;;;;;;33.07;25.90;;;10.40;99.90;;;;;;5055444;28;20481;-56
2024/03/12 10:59:09;;;;;;;35.57;23.77;;;10.30;99.90;;;;;;5055702;28;20445;-56
2024/03/12 11:01:37;;;;;;;35.10;24.93;;;10.30;99.90;;;;;;5055643;28;20449;-55
2024/03/12 11:04:05;;;;;;;39.93;25.13;;;10.30;99.90;;;;;;5055565;28;20802;-56
2024/03/12 11:06:36;;;;;;;39.33;24.43;;;10.40;99.90;;;;;;5055524;28;20520;-56
2024/03/12 11:09:04;;;;;;;36.27;25.70;;;10.50;99.90;;;;;;5055393;28;20473;-56
2024/03/12 11:11:31;;;;;;;37.43;24.33;;;10.60;99.90;;;;;;5055382;28;20446;-56
2024/03/12 11:14:02;;;;;;;36.80;24.23;;;10.70;99.90;;;;;;5055353;28;20452;-56
2024/03/12 11:16:32;;;;;;;36.50;24.97;;;10.80;99.90;;;;;;5055134;28;20966;-56
2024/03/12 11:19:17;;;;;;;37.37;25.20;;;10.80;99.90;;;;;;5055117;28;20517;-56
2024/03/12 11:21:47;;;;;;;38.53;24.13;;;11.00;99.90;;;;;;5055234;28;20430;-56
2024/03/12 11:24:14;;;;;;;35.70;26.13;;;11.00;99.90;;;;;;5055298;28;20445;-56
2024/03/12 11:26:41;;;;;;;40.50;26.50;;;11.20;99.90;;;;;;5055138;28;20465;-56
2024/03/12 11:29:15;;;;;;;32.30;23.37;;;11.30;99.90;;;;;;5055119;28;20495;-56
2024/03/12 11:31:42;;;;;;;38.60;26.20;;;11.40;99.90;;;;;;5054846;28;20440;-56
2024/03/12 11:34:10;;;;;;;40.03;26.30;;;11.50;99.90;;;;;;5055039;28;20446;-56
2024/03/12 11:36:45;;;;;;;39.03;25.27;;;11.50;99.90;;;;;;5054703;28;20564;-56
2024/03/12 11:39:15;;;;;;;32.90;24.13;;;11.50;99.90;;;;;;5055030;28;20833;-56
2024/03/12 11:42:14;;;;;;;32.23;23.77;;;11.50;99.90;;;;;;5054680;28;20962;-56
2024/03/12 11:44:48;;;;;;;39.07;27.00;;;11.60;99.90;;;;;;5054975;28;20433;-56
2024/03/12 11:47:29;;;;;;;38.70;25.17;;;11.50;99.90;;;;;;5054774;28;20472;-56
2024/03/12 11:49:56;;;;;;;32.90;24.50;;;11.50;99.90;;;;;;5054764;28;20468;-56
2024/03/12 11:52:23;;;;;;;38.10;25.33;;;11.50;99.90;;;;;;5054328;28;20943;-56
2024/03/12 11:54:52;;;;;;;37.90;25.17;;;11.60;99.90;;;;;;5054389;28;20954;-56
2024/03/12 11:57:23;;;;;;;36.67;25.87;;;12.00;99.90;;;;;;5054328;28;20477;-56
2024/03/12 11:59:54;;;;;;;34.90;24.70;;;12.60;99.90;;;;;;5054560;28;20938;-56
2024/03/12 12:02:21;;;;;;;31.80;22.87;;;13.30;99.30;;;;;;5054500;28;20429;-56
2024/03/12 12:04:51;;;;;;;31.77;24.07;;;13.90;97.70;;;;;;5054170;28;20448;-56
2024/03/12 12:07:19;;;;;;;34.70;24.33;;;14.10;95.70;;;;;;5054390;28;20461;-56
2024/03/12 12:09:46;;;;;;;29.43;23.07;;;14.00;95.40;;;;;;5054332;28;20486;-56
2024/03/12 12:12:14;;;;;;;29.53;22.33;;;14.00;95.60;;;;;;5054260;28;20437;-56
2024/03/12 12:14:43;;;;;;;34.83;23.37;;;13.90;94.80;;;;;;5054181;28;20441;-56
2024/03/12 12:17:13;;;;;;;35.10;24.50;;;13.70;95.30;;;;;;5054184;28;20548;-56
2024/03/12 12:19:41;;;;;;;36.50;25.30;;;13.50;95.70;;;;;;5053882;28;20897;-56
2024/03/12 12:22:08;;;;;;;37.27;27.00;;;13.30;96.40;;;;;;5054184;28;20481;-56
2024/03/12 12:24:39;;;;;;;33.57;23.47;;;13.20;97.10;;;;;;5054102;28;20451;-56
2024/03/12 12:27:06;;;;;;;38.17;24.90;;;13.10;97.00;;;;;;5053951;28;20468;-56
2024/03/12 12:29:35;;;;;;;36.50;25.87;;;12.90;97.30;;;;;;5053643;28;20844;-56
2024/03/12 12:32:02;;;;;;;35.07;25.83;;;12.60;96.90;;;;;;5053867;28;20441;-56
2024/03/12 12:34:32;;;;;;;34.77;22.50;;;12.50;97.80;;;;;;5053852;28;20449;-56
2024/03/12 12:37:00;;;;;;;38.60;24.60;;;12.30;97.60;;;;;;5053815;28;20472;-56
2024/03/12 12:39:34;;;;;;;34.57;21.80;;;12.10;97.40;;;;;;5053832;28;20444;-56
2024/03/12 12:42:01;;;;;;;35.67;24.27;;;12.10;98.20;;;;;;5053865;28;20430;-56
2024/03/12 12:44:28;;;;;;;34.13;22.80;;;12.10;98.00;;;;;;5053792;28;20487;-56
2024/03/12 12:46:55;;;;;;;33.87;23.00;;;12.10;97.40;;;;;;5053660;28;20461;-56